Time;durP1;ratioP1;P1;durP2;ratioP2;P2;SDS_P1;SDS_P2;PMS_P1;PMS_P2;Temp;Humidity;BMP_temperature;BMP_pressure;BME280_temperature;BME280_humidity;BME280_pressure;Samples;Min_cycle;Max_cycle;Signal;HPM_P1;HPM_P2
2022/01/06 00:01:20;;;;;;;9.13;3.08;;;1.20;99.90;;;;;;5030638;28;20021;-71
2022/01/06 00:03:46;;;;;;;10.75;2.60;;;1.20;99.90;;;;;;5038318;28;20033;-72
2022/01/06 00:06:12;;;;;;;10.43;2.97;;;1.20;99.90;;;;;;5042590;28;20051;-67
2022/01/06 00:08:39;;;;;;;17.30;2.85;;;1.20;99.90;;;;;;5041968;28;20038;-73
2022/01/06 00:11:07;;;;;;;10.88;3.05;;;1.20;99.90;;;;;;5037700;28;20028;-72
2022/01/06 00:24:21;;;;;;;10.00;3.22;;;1.20;99.90;;;;;;5033928;28;20532;-70
2022/01/06 00:26:48;;;;;;;11.10;3.10;;;1.20;99.90;;;;;;5030788;28;20072;-73
2022/01/06 00:29:15;;;;;;;8.13;2.95;;;1.20;99.90;;;;;;5031239;28;20057;-69
2022/01/06 00:31:41;;;;;;;18.33;3.22;;;1.20;99.90;;;;;;5040752;28;20033;-72
2022/01/06 00:34:10;;;;;;;10.80;3.05;;;1.10;99.90;;;;;;5032881;28;20165;-72
2022/01/06 00:36:40;;;;;;;14.50;2.92;;;1.10;99.90;;;;;;5043748;28;20476;-71
2022/01/06 00:39:07;;;;;;;12.25;3.78;;;1.10;99.90;;;;;;5041242;28;20214;-72
2022/01/06 00:41:34;;;;;;;8.98;2.88;;;1.20;99.90;;;;;;5031745;28;20033;-71
2022/01/06 00:44:00;;;;;;;14.88;3.70;;;1.20;99.90;;;;;;5048178;28;20029;-72
2022/01/06 00:46:26;;;;;;;11.95;3.50;;;1.20;99.90;;;;;;5044630;28;20033;-72
2022/01/06 00:48:52;;;;;;;15.05;3.20;;;1.20;99.90;;;;;;5048420;28;20044;-72
2022/01/06 00:51:17;;;;;;;12.85;3.15;;;1.20;99.90;;;;;;5043744;28;20052;-72
2022/01/06 00:53:43;;;;;;;12.27;3.33;;;1.20;99.90;;;;;;5033848;28;20385;-72
2022/01/06 00:56:09;;;;;;;13.35;3.63;;;1.20;99.90;;;;;;5043546;28;20163;-72
2022/01/06 00:58:34;;;;;;;15.80;3.28;;;1.30;99.90;;;;;;5046259;28;20040;-72
2022/01/06 01:01:00;;;;;;;11.20;3.17;;;1.20;99.90;;;;;;5045262;28;20017;-72
2022/01/06 01:03:27;;;;;;;14.60;3.50;;;1.30;99.90;;;;;;5034053;28;20370;-72
2022/01/06 01:05:55;;;;;;;11.80;3.40;;;1.30;99.90;;;;;;5035281;28;20040;-72
2022/01/06 01:08:22;;;;;;;19.70;3.78;;;1.30;99.90;;;;;;5032385;28;20033;-73
2022/01/06 01:10:50;;;;;;;14.43;3.55;;;1.30;99.90;;;;;;5044762;28;20036;-73
2022/01/06 01:13:16;;;;;;;19.42;3.70;;;1.20;99.90;;;;;;5029173;28;20393;-69
2022/01/06 01:15:53;;;;;;;16.60;3.47;;;1.20;99.90;;;;;;5025341;28;20029;-72
2022/01/06 01:18:20;;;;;;;14.45;4.07;;;1.20;99.90;;;;;;5047991;28;20052;-73
2022/01/06 01:20:47;;;;;;;12.98;3.50;;;1.20;99.90;;;;;;5046441;28;20036;-72
2022/01/06 01:23:13;;;;;;;12.68;3.50;;;1.10;99.90;;;;;;5048412;28;20037;-69
2022/01/06 01:25:39;;;;;;;14.23;4.38;;;1.20;99.90;;;;;;5045973;28;20095;-72
2022/01/06 01:28:05;;;;;;;14.18;4.20;;;1.20;99.90;;;;;;5044573;28;20436;-72
2022/01/06 01:30:39;;;;;;;16.05;4.00;;;1.20;99.90;;;;;;5044764;28;20067;-72
2022/01/06 01:33:14;;;;;;;16.38;5.05;;;1.20;99.90;;;;;;5048740;28;20025;-72
2022/01/06 01:35:40;;;;;;;25.30;4.15;;;1.20;99.90;;;;;;5037280;28;20095;-72
2022/01/06 01:38:07;;;;;;;14.90;4.57;;;1.20;99.90;;;;;;5036322;28;20053;-72
2022/01/06 01:40:33;;;;;;;10.77;4.40;;;1.20;99.90;;;;;;5037912;28;20032;-71
2022/01/06 01:42:59;;;;;;;13.48;4.43;;;1.20;99.90;;;;;;5048125;28;20037;-72
2022/01/06 01:45:29;;;;;;;22.63;4.85;;;1.20;99.90;;;;;;5023494;28;20116;-73
2022/01/06 01:47:57;;;;;;;20.23;4.95;;;1.10;99.90;;;;;;5045118;28;20032;-72
2022/01/06 01:50:24;;;;;;;23.05;4.60;;;1.10;99.90;;;;;;5047624;28;20052;-72
2022/01/06 01:52:52;;;;;;;14.68;5.38;;;1.20;99.90;;;;;;5045831;28;20440;-72
2022/01/06 01:55:24;;;;;;;16.23;5.32;;;1.10;99.90;;;;;;5036223;28;20397;-69
2022/01/06 01:57:51;;;;;;;16.33;5.25;;;1.10;99.90;;;;;;5030354;28;20473;-72
2022/01/06 02:00:19;;;;;;;13.65;4.43;;;1.10;99.90;;;;;;5044597;28;20025;-69
2022/01/06 02:02:45;;;;;;;25.40;5.88;;;1.00;99.90;;;;;;5047382;28;20461;-72
2022/01/06 02:05:11;;;;;;;19.40;6.20;;;1.00;99.90;;;;;;5046052;28;20065;-73
2022/01/06 02:07:41;;;;;;;19.85;5.82;;;1.00;99.90;;;;;;5038059;28;20034;-73
2022/01/06 02:10:09;;;;;;;15.30;5.67;;;1.00;99.90;;;;;;5029602;28;20041;-72
2022/01/06 02:12:37;;;;;;;14.50;5.30;;;1.00;99.90;;;;;;5037618;28;20128;-72
2022/01/06 02:15:08;;;;;;;13.13;5.18;;;1.00;99.90;;;;;;5038793;28;20045;-72
2022/01/06 02:17:34;;;;;;;14.00;5.25;;;1.00;99.90;;;;;;5047777;28;20059;-73
2022/01/06 02:20:01;;;;;;;16.70;6.05;;;1.00;99.90;;;;;;5047364;28;20608;-71
2022/01/06 02:22:27;;;;;;;15.68;6.05;;;1.00;99.90;;;;;;5031950;28;20083;-70
2022/01/06 02:24:53;;;;;;;16.92;6.40;;;1.00;99.90;;;;;;5024774;28;20033;-72
2022/01/06 02:27:20;;;;;;;18.42;6.50;;;1.00;99.90;;;;;;5034060;28;20156;-70
2022/01/06 02:29:47;;;;;;;14.27;5.45;;;1.10;99.90;;;;;;5031382;28;20033;-72
2022/01/06 02:32:16;;;;;;;16.52;6.05;;;1.10;99.90;;;;;;5042200;28;20482;-74
2022/01/06 02:34:42;;;;;;;16.25;6.00;;;1.20;99.90;;;;;;5040064;28;20089;-72
2022/01/06 02:37:08;;;;;;;22.02;6.13;;;1.20;99.90;;;;;;5041378;28;20044;-73
2022/01/06 02:39:34;;;;;;;17.10;6.20;;;1.20;99.90;;;;;;5010663;28;20038;-71
2022/01/06 02:41:59;;;;;;;18.33;6.30;;;1.10;99.90;;;;;;5038548;28;20112;-72
2022/01/06 02:44:26;;;;;;;14.73;5.25;;;1.10;99.90;;;;;;5050212;28;20108;-72
2022/01/06 02:46:55;;;;;;;23.30;6.40;;;1.10;99.90;;;;;;5041339;28;20115;-73
2022/01/06 02:49:20;;;;;;;15.50;5.70;;;1.10;99.90;;;;;;5047445;28;20188;-70
2022/01/06 02:51:46;;;;;;;16.75;6.07;;;1.10;99.90;;;;;;5044145;28;20488;-71
2022/01/06 02:54:13;;;;;;;20.98;6.47;;;1.00;99.90;;;;;;5046017;28;20048;-73
2022/01/06 02:56:41;;;;;;;17.85;6.28;;;1.00;99.90;;;;;;5046280;28;20064;-72
2022/01/06 02:59:07;;;;;;;16.05;5.35;;;1.00;99.90;;;;;;5044844;28;20049;-71
2022/01/06 03:01:41;;;;;;;15.63;5.32;;;1.00;99.90;;;;;;5033982;28;20038;-71
2022/01/06 03:04:07;;;;;;;20.23;6.03;;;1.00;99.90;;;;;;5049360;28;20087;-71
2022/01/06 03:06:34;;;;;;;11.50;5.22;;;1.10;99.90;;;;;;5038097;28;20037;-71
2022/01/06 03:08:59;;;;;;;14.23;5.25;;;1.10;99.90;;;;;;5032755;28;20108;-72
2022/01/06 03:11:26;;;;;;;19.70;5.90;;;1.10;99.90;;;;;;5049673;28;20120;-70
2022/01/06 03:13:53;;;;;;;16.67;5.03;;;1.10;99.90;;;;;;5043785;28;20367;-71
2022/01/06 03:16:19;;;;;;;14.48;5.60;;;1.10;99.90;;;;;;5046648;28;20045;-72
2022/01/06 03:18:44;;;;;;;19.48;6.57;;;1.10;99.90;;;;;;5032436;28;20086;-72
2022/01/06 03:21:10;;;;;;;22.77;6.07;;;1.10;99.90;;;;;;5033379;28;20026;-72
2022/01/06 03:23:36;;;;;;;18.55;6.35;;;1.10;99.90;;;;;;5037593;28;20496;-72
2022/01/06 03:26:01;;;;;;;21.55;6.13;;;1.10;99.90;;;;;;5050254;28;20036;-72
2022/01/06 03:28:27;;;;;;;17.80;6.30;;;1.10;99.90;;;;;;5017390;28;20047;-72
2022/01/06 03:30:53;;;;;;;24.48;6.50;;;1.10;99.90;;;;;;5035635;28;20392;-72
2022/01/06 03:33:18;;;;;;;27.55;7.05;;;1.10;99.90;;;;;;5032183;28;20487;-72
2022/01/06 03:35:44;;;;;;;18.15;7.10;;;1.10;99.90;;;;;;5041910;28;20889;-72
2022/01/06 03:38:10;;;;;;;21.48;6.78;;;1.10;99.90;;;;;;5024233;28;20729;-71
2022/01/06 03:40:36;;;;;;;16.17;5.45;;;1.10;99.90;;;;;;5031275;28;20057;-72
2022/01/06 03:43:01;;;;;;;16.52;6.55;;;1.20;99.90;;;;;;5048050;28;20040;-72
2022/01/06 03:45:27;;;;;;;22.75;6.90;;;1.20;99.90;;;;;;5044499;28;20027;-72
2022/01/06 03:47:53;;;;;;;18.58;7.20;;;1.20;99.90;;;;;;5050393;28;20500;-72
2022/01/06 03:50:19;;;;;;;18.42;6.38;;;1.20;99.90;;;;;;5040422;28;20048;-72
2022/01/06 03:52:45;;;;;;;18.95;6.50;;;1.20;99.90;;;;;;5042895;28;20017;-72
2022/01/06 03:55:15;;;;;;;21.27;7.32;;;1.20;99.90;;;;;;5039650;28;20032;-72
2022/01/06 03:57:40;;;;;;;18.67;6.60;;;1.20;99.90;;;;;;5036892;28;20037;-72
2022/01/06 04:00:09;;;;;;;22.90;6.72;;;1.20;99.90;;;;;;5038418;28;20442;-70
2022/01/06 04:02:35;;;;;;;25.35;7.60;;;1.10;99.90;;;;;;5041569;28;20029;-72
2022/01/06 04:05:05;;;;;;;26.52;7.85;;;1.10;99.90;;;;;;5044394;28;20040;-71
2022/01/06 04:07:32;;;;;;;20.20;7.88;;;1.10;99.90;;;;;;5033719;28;20047;-71
2022/01/06 04:09:58;;;;;;;21.38;6.75;;;1.10;99.90;;;;;;5047610;28;20124;-70
2022/01/06 04:12:24;;;;;;;20.02;6.90;;;1.10;99.90;;;;;;5050193;28;20036;-67
2022/01/06 04:14:50;;;;;;;18.77;6.03;;;1.20;99.90;;;;;;5047862;28;20037;-71
2022/01/06 04:17:16;;;;;;;20.73;6.35;;;1.20;99.90;;;;;;5048617;28;20043;-72
2022/01/06 04:19:42;;;;;;;18.55;7.45;;;1.20;99.90;;;;;;5040483;28;20497;-71
2022/01/06 04:22:07;;;;;;;18.58;7.75;;;1.20;99.90;;;;;;5033144;28;20033;-72
2022/01/06 04:24:34;;;;;;;18.65;6.88;;;1.20;99.90;;;;;;5025087;28;20033;-71
2022/01/06 04:27:00;;;;;;;19.73;6.93;;;1.20;99.90;;;;;;5042156;28;20094;-72
2022/01/06 04:29:26;;;;;;;20.23;6.07;;;1.20;99.90;;;;;;5043726;28;20103;-67
2022/01/06 04:31:52;;;;;;;17.65;6.07;;;1.20;99.90;;;;;;5036722;28;20061;-71
2022/01/06 04:34:17;;;;;;;18.67;5.95;;;1.20;99.90;;;;;;5041643;28;20473;-72
2022/01/06 04:36:48;;;;;;;16.33;6.43;;;1.10;99.90;;;;;;5038574;28;20076;-71
2022/01/06 04:39:14;;;;;;;20.17;6.20;;;1.10;99.90;;;;;;5040364;28;20128;-71
2022/01/06 04:41:40;;;;;;;16.60;6.38;;;1.10;99.90;;;;;;5030991;28;20444;-71
2022/01/06 04:44:05;;;;;;;22.67;6.18;;;1.10;99.90;;;;;;5038852;28;20033;-71
2022/01/06 04:46:31;;;;;;;16.80;6.25;;;1.10;99.90;;;;;;5032965;28;20108;-71
2022/01/06 04:48:57;;;;;;;19.25;5.47;;;1.10;99.90;;;;;;5036086;28;20033;-72
2022/01/06 04:51:22;;;;;;;21.00;6.50;;;1.10;99.90;;;;;;5041556;28;20041;-71
2022/01/06 04:53:48;;;;;;;16.30;5.85;;;1.20;99.90;;;;;;5038226;28;20025;-72
2022/01/06 04:56:14;;;;;;;20.02;6.13;;;1.20;99.90;;;;;;5036038;28;20036;-72
2022/01/06 04:58:40;;;;;;;20.58;5.88;;;1.20;99.90;;;;;;5039308;28;20040;-72
2022/01/06 05:01:05;;;;;;;18.90;5.93;;;1.20;99.90;;;;;;5046638;28;20040;-71
2022/01/06 05:03:31;;;;;;;17.52;5.82;;;1.20;99.90;;;;;;5041423;28;20393;-71
2022/01/06 05:05:57;;;;;;;23.30;6.63;;;1.20;99.90;;;;;;5047424;28;20028;-71
2022/01/06 05:08:22;;;;;;;19.27;6.15;;;1.30;99.90;;;;;;5038599;28;20033;-70
2022/01/06 05:10:48;;;;;;;16.55;5.93;;;1.30;99.90;;;;;;5030465;28;20677;-71
2022/01/06 05:13:13;;;;;;;19.17;6.28;;;1.30;99.90;;;;;;5035066;28;20094;-71
2022/01/06 05:15:39;;;;;;;18.20;6.22;;;1.30;99.90;;;;;;5029419;28;20404;-72
2022/01/06 05:18:05;;;;;;;15.40;6.07;;;1.30;99.90;;;;;;5030188;28;20041;-71
2022/01/06 05:20:30;;;;;;;19.73;6.45;;;1.30;99.90;;;;;;5034096;28;20033;-69
2022/01/06 05:22:57;;;;;;;20.95;6.60;;;1.30;99.90;;;;;;5036093;28;20064;-71
2022/01/06 05:25:28;;;;;;;18.48;5.78;;;1.30;99.90;;;;;;5047721;28;20488;-71
2022/01/06 05:27:55;;;;;;;17.23;5.97;;;1.20;99.90;;;;;;5043591;28;20380;-72
2022/01/06 05:30:21;;;;;;;20.48;6.45;;;1.20;99.90;;;;;;5046102;28;20025;-71
2022/01/06 05:32:46;;;;;;;16.88;6.53;;;1.30;99.90;;;;;;5044858;28;20568;-72
2022/01/06 05:35:12;;;;;;;21.65;7.00;;;1.30;99.90;;;;;;5036200;28;20021;-72
2022/01/06 05:37:38;;;;;;;18.58;6.78;;;1.30;99.90;;;;;;5040936;28;20396;-72
2022/01/06 05:40:05;;;;;;;18.98;7.05;;;1.30;99.90;;;;;;5033870;28;20476;-72
2022/01/06 05:42:30;;;;;;;18.73;6.97;;;1.40;99.90;;;;;;5044916;28;20048;-69
2022/01/06 05:44:56;;;;;;;21.83;7.47;;;1.40;99.90;;;;;;5019055;28;20029;-72
2022/01/06 05:47:22;;;;;;;23.55;7.55;;;1.40;99.90;;;;;;5045204;28;20033;-70
2022/01/06 05:49:48;;;;;;;25.67;7.65;;;1.40;99.90;;;;;;5046856;28;20045;-71
2022/01/06 05:52:13;;;;;;;27.02;7.80;;;1.50;99.90;;;;;;5046818;28;20028;-71
2022/01/06 05:54:39;;;;;;;21.70;7.63;;;1.50;99.90;;;;;;5046140;28;20588;-71
2022/01/06 05:57:06;;;;;;;16.50;6.82;;;1.40;99.90;;;;;;5038182;28;20048;-71
2022/01/06 05:59:32;;;;;;;24.88;7.50;;;1.40;99.90;;;;;;5037216;28;20122;-68
2022/01/06 06:01:59;;;;;;;26.48;7.35;;;1.40;99.90;;;;;;5042630;28;20034;-70
2022/01/06 06:04:25;;;;;;;19.15;7.40;;;1.30;99.90;;;;;;5036819;28;20043;-72
2022/01/06 06:06:50;;;;;;;19.88;7.13;;;1.30;99.90;;;;;;5045585;28;20028;-72
2022/01/06 06:09:16;;;;;;;21.05;7.25;;;1.30;99.90;;;;;;5046342;28;20032;-72
2022/01/06 06:11:41;;;;;;;21.10;7.85;;;1.20;99.90;;;;;;5039517;28;20397;-72
2022/01/06 06:14:07;;;;;;;22.35;7.70;;;1.20;99.90;;;;;;5036051;28;20067;-72
2022/01/06 06:16:33;;;;;;;24.73;7.30;;;1.20;99.90;;;;;;5043729;28;20041;-68
2022/01/06 06:18:59;;;;;;;17.75;6.65;;;1.20;99.90;;;;;;5032380;28;20112;-72
2022/01/06 06:21:25;;;;;;;20.33;6.88;;;1.30;99.90;;;;;;5043049;28;20025;-72
2022/01/06 06:23:51;;;;;;;21.02;6.68;;;1.30;99.90;;;;;;5041464;28;20048;-72
2022/01/06 06:26:17;;;;;;;22.92;7.43;;;1.40;99.90;;;;;;5046171;28;20025;-71
2022/01/06 06:28:43;;;;;;;18.05;6.65;;;1.40;99.90;;;;;;5044343;28;20035;-72
2022/01/06 06:31:09;;;;;;;23.00;7.78;;;1.30;99.90;;;;;;5051950;28;20488;-71
2022/01/06 06:33:34;;;;;;;22.63;7.18;;;1.30;99.90;;;;;;5052110;28;20041;-70
2022/01/06 06:36:00;;;;;;;25.15;7.65;;;1.30;99.90;;;;;;5051421;28;20029;-72
2022/01/06 06:38:26;;;;;;;21.15;7.78;;;1.30;99.90;;;;;;5047276;28;20491;-72
2022/01/06 06:40:51;;;;;;;20.52;7.25;;;1.40;99.90;;;;;;5041808;28;20188;-72
2022/01/06 06:43:17;;;;;;;22.05;7.00;;;1.40;99.90;;;;;;5052638;28;20033;-73
2022/01/06 06:45:43;;;;;;;23.58;7.90;;;1.40;99.90;;;;;;5048991;28;20029;-72
2022/01/06 06:48:10;;;;;;;20.20;7.60;;;1.40;99.90;;;;;;5045139;28;20091;-73
2022/01/06 06:50:36;;;;;;;30.88;8.13;;;1.40;99.90;;;;;;5039850;28;20048;-71
2022/01/06 06:53:02;;;;;;;22.77;7.68;;;1.40;99.90;;;;;;5042801;28;20545;-73
2022/01/06 06:55:28;;;;;;;20.55;7.47;;;1.40;99.90;;;;;;5045176;28;20120;-73
2022/01/06 06:57:54;;;;;;;22.73;7.35;;;1.40;99.90;;;;;;5033590;28;20627;-73
2022/01/06 07:00:20;;;;;;;23.58;7.78;;;1.40;99.90;;;;;;5032730;28;20044;-73
2022/01/06 07:02:46;;;;;;;23.55;8.40;;;1.40;99.90;;;;;;5039119;28;20458;-72
2022/01/06 07:05:12;;;;;;;27.95;8.65;;;1.40;99.90;;;;;;5032171;28;20037;-72
2022/01/06 07:07:37;;;;;;;25.20;8.48;;;1.40;99.90;;;;;;5031947;28;20033;-69
2022/01/06 07:10:04;;;;;;;24.58;8.35;;;1.40;99.90;;;;;;5022044;28;20083;-72
2022/01/06 07:12:30;;;;;;;20.25;7.90;;;1.50;99.90;;;;;;5037118;28;20119;-72
2022/01/06 07:14:57;;;;;;;23.85;7.90;;;1.50;99.90;;;;;;5050324;28;20021;-74
2022/01/06 07:17:23;;;;;;;24.33;8.45;;;1.40;99.90;;;;;;5048934;28;20044;-72
2022/01/06 07:19:49;;;;;;;20.95;8.23;;;1.40;99.90;;;;;;5037586;28;20033;-73
2022/01/06 07:22:14;;;;;;;20.58;7.43;;;1.50;99.90;;;;;;5051116;28;20021;-73
2022/01/06 07:24:40;;;;;;;25.30;8.57;;;1.50;99.90;;;;;;5050341;28;20033;-72
2022/01/06 07:27:06;;;;;;;28.13;10.65;;;1.50;99.90;;;;;;5046197;28;20037;-72
2022/01/06 07:29:31;;;;;;;49.55;17.63;;;1.60;99.90;;;;;;5045640;28;20041;-74
2022/01/06 07:31:57;;;;;;;26.58;8.35;;;1.60;99.90;;;;;;5030884;28;20049;-73
2022/01/06 07:34:23;;;;;;;24.70;7.65;;;1.60;99.90;;;;;;5032264;28;20034;-73
2022/01/06 07:36:48;;;;;;;26.48;7.68;;;1.60;99.90;;;;;;5031194;28;20591;-72
2022/01/06 07:39:14;;;;;;;22.08;7.95;;;1.60;99.90;;;;;;5031557;28;20045;-73
2022/01/06 07:41:40;;;;;;;21.48;7.35;;;1.60;99.90;;;;;;5047183;28;20028;-72
2022/01/06 07:44:07;;;;;;;24.40;6.60;;;1.60;99.90;;;;;;5051430;28;20489;-73
2022/01/06 07:46:36;;;;;;;22.20;7.47;;;1.60;99.90;;;;;;5049830;28;20437;-71
2022/01/06 07:49:03;;;;;;;21.00;6.90;;;1.60;99.90;;;;;;5042239;28;20021;-72
2022/01/06 07:51:31;;;;;;;17.40;6.28;;;1.70;99.90;;;;;;5015347;28;20524;-72
2022/01/06 07:54:00;;;;;;;21.75;6.25;;;1.60;99.90;;;;;;5035119;28;20025;-73
2022/01/06 07:56:27;;;;;;;19.10;6.53;;;1.60;99.90;;;;;;5033266;28;20037;-72
2022/01/06 07:58:53;;;;;;;19.10;6.20;;;1.60;99.90;;;;;;5041007;28;20025;-73
2022/01/06 08:01:19;;;;;;;16.33;6.40;;;1.70;99.90;;;;;;5042332;28;20029;-72
2022/01/06 08:03:44;;;;;;;17.85;6.38;;;1.60;99.90;;;;;;5032661;28;20041;-73
2022/01/06 08:06:13;;;;;;;14.40;6.57;;;1.60;99.90;;;;;;5049416;28;20032;-73
2022/01/06 08:08:39;;;;;;;22.33;6.30;;;1.60;99.90;;;;;;5031912;28;20037;-71
2022/01/06 08:11:05;;;;;;;14.85;5.75;;;1.60;99.90;;;;;;5030622;28;20025;-73
2022/01/06 08:13:31;;;;;;;14.75;5.88;;;1.60;99.90;;;;;;5035990;28;20481;-73
2022/01/06 08:15:57;;;;;;;15.27;5.80;;;1.50;99.90;;;;;;5027982;28;20040;-73
2022/01/06 08:18:22;;;;;;;15.00;5.35;;;1.60;99.90;;;;;;5042270;28;20033;-73
2022/01/06 08:20:48;;;;;;;18.67;5.30;;;1.60;99.90;;;;;;5045822;28;20032;-72
2022/01/06 08:23:14;;;;;;;18.85;5.13;;;1.60;99.90;;;;;;5048969;28;20115;-72
2022/01/06 08:25:40;;;;;;;21.60;5.43;;;1.60;99.90;;;;;;5032348;28;20029;-71
2022/01/06 08:28:07;;;;;;;16.25;5.60;;;1.60;99.90;;;;;;5036824;28;20053;-73
2022/01/06 08:30:33;;;;;;;19.13;6.15;;;1.60;99.90;;;;;;5014275;28;20481;-72
2022/01/06 08:32:59;;;;;;;17.23;5.72;;;1.60;99.90;;;;;;5032424;28;20025;-73
2022/01/06 08:35:26;;;;;;;12.32;5.22;;;1.60;99.90;;;;;;5021487;28;20462;-73
2022/01/06 08:37:52;;;;;;;17.45;5.85;;;1.70;99.90;;;;;;5033296;28;20378;-73
2022/01/06 08:40:18;;;;;;;20.38;6.15;;;1.70;99.90;;;;;;5030546;28;20056;-73
2022/01/06 08:42:46;;;;;;;13.20;5.15;;;1.70;99.90;;;;;;5029445;28;20067;-75
2022/01/06 08:45:13;;;;;;;15.15;6.28;;;1.70;99.90;;;;;;5047294;28;20427;-76
2022/01/06 08:47:39;;;;;;;13.10;5.57;;;1.80;99.90;;;;;;5050485;28;20051;-75
2022/01/06 08:50:05;;;;;;;15.02;5.82;;;1.80;99.90;;;;;;5049346;28;20516;-75
2022/01/06 08:52:31;;;;;;;16.45;6.35;;;1.80;99.90;;;;;;5032386;28;20481;-75
2022/01/06 08:54:57;;;;;;;17.23;6.20;;;1.80;99.90;;;;;;5049569;28;20139;-75
2022/01/06 08:57:23;;;;;;;23.20;6.43;;;1.90;99.90;;;;;;5049952;28;20075;-74
2022/01/06 08:59:49;;;;;;;19.85;7.38;;;1.90;99.90;;;;;;5049413;28;20017;-75
2022/01/06 09:02:14;;;;;;;18.10;6.57;;;2.00;99.90;;;;;;5050112;28;20473;-75
2022/01/06 09:04:40;;;;;;;18.75;6.28;;;2.00;99.90;;;;;;5029253;28;20543;-73
2022/01/06 09:07:06;;;;;;;15.90;6.28;;;2.00;99.90;;;;;;5029541;28;20128;-75
2022/01/06 09:09:31;;;;;;;25.30;8.02;;;2.10;99.90;;;;;;5030038;28;20053;-75
2022/01/06 09:11:57;;;;;;;22.08;6.95;;;2.10;99.90;;;;;;5029283;28;20462;-76
2022/01/06 09:14:23;;;;;;;21.88;7.60;;;2.10;99.90;;;;;;5029577;28;20057;-75
2022/01/06 09:16:50;;;;;;;23.70;7.82;;;2.10;99.90;;;;;;5029442;28;20745;-75
2022/01/06 09:19:16;;;;;;;21.10;7.22;;;2.20;99.90;;;;;;5030928;28;20025;-74
2022/01/06 09:21:43;;;;;;;24.15;7.28;;;2.20;99.90;;;;;;5049113;28;20045;-72
2022/01/06 09:24:09;;;;;;;26.42;8.43;;;2.30;99.90;;;;;;5049466;28;20087;-73
2022/01/06 09:26:36;;;;;;;23.00;7.70;;;2.30;99.90;;;;;;5049709;28;20032;-73
2022/01/06 09:29:07;;;;;;;24.40;7.88;;;2.30;99.90;;;;;;5048537;28;20046;-73
2022/01/06 09:31:38;;;;;;;17.90;7.18;;;2.30;99.90;;;;;;5049671;28;20029;-73
2022/01/06 09:34:04;;;;;;;19.85;7.43;;;2.40;99.90;;;;;;5046876;28;20663;-72
2022/01/06 09:36:31;;;;;;;23.33;7.53;;;2.40;99.90;;;;;;5049273;28;20049;-73
2022/01/06 09:38:58;;;;;;;23.17;7.55;;;2.40;99.90;;;;;;5048637;28;20111;-73
2022/01/06 09:41:26;;;;;;;18.27;6.55;;;2.50;99.90;;;;;;5049383;28;20033;-73
2022/01/06 09:43:55;;;;;;;25.23;7.05;;;2.60;99.90;;;;;;5047488;28;20425;-74
2022/01/06 09:46:21;;;;;;;25.92;7.00;;;2.50;99.90;;;;;;5039813;28;20466;-74
2022/01/06 09:48:48;;;;;;;26.08;7.30;;;2.50;99.90;;;;;;5022602;28;20030;-72
2022/01/06 09:51:14;;;;;;;15.00;6.70;;;2.50;99.90;;;;;;5040080;28;20040;-74
2022/01/06 09:53:41;;;;;;;21.55;6.95;;;2.50;99.90;;;;;;5038564;28;20040;-75
2022/01/06 09:56:07;;;;;;;23.27;7.75;;;2.50;99.90;;;;;;5047918;28;20033;-74
2022/01/06 09:58:33;;;;;;;26.63;7.18;;;2.50;99.90;;;;;;5047630;28;20041;-73
2022/01/06 10:00:59;;;;;;;26.95;7.18;;;2.60;99.90;;;;;;5045936;28;20048;-74
2022/01/06 10:03:44;;;;;;;19.90;6.95;;;2.60;99.90;;;;;;5038001;28;20064;-74
2022/01/06 10:06:15;;;;;;;25.05;7.88;;;2.60;99.90;;;;;;5024104;28;20537;-74
2022/01/06 10:08:48;;;;;;;21.15;7.70;;;2.70;99.90;;;;;;5042834;28;20085;-73
2022/01/06 10:11:15;;;;;;;23.65;6.90;;;2.80;99.90;;;;;;5042209;28;20104;-74
2022/01/06 10:13:52;;;;;;;21.70;7.40;;;2.80;99.90;;;;;;5048294;28;20045;-74
2022/01/06 10:16:19;;;;;;;21.98;7.05;;;2.80;99.90;;;;;;5048443;28;20059;-74
2022/01/06 10:19:06;;;;;;;22.58;7.20;;;2.90;99.90;;;;;;5043704;28;20048;-72
2022/01/06 10:21:38;;;;;;;25.85;7.63;;;2.90;99.90;;;;;;5049137;28;20029;-74
2022/01/06 10:24:07;;;;;;;17.83;6.72;;;2.90;99.90;;;;;;5047938;28;20029;-74
2022/01/06 10:26:34;;;;;;;20.58;7.07;;;2.80;99.90;;;;;;5044295;28;20044;-74
2022/01/06 10:29:00;;;;;;;19.88;6.80;;;2.80;99.90;;;;;;5048048;28;20047;-74
2022/01/06 10:31:29;;;;;;;24.88;7.70;;;2.90;99.90;;;;;;5048783;28;20040;-73
2022/01/06 10:33:55;;;;;;;20.80;7.20;;;2.90;99.90;;;;;;5045837;28;20035;-73
2022/01/06 10:36:31;;;;;;;21.20;6.97;;;2.90;99.90;;;;;;5037561;28;20028;-73
2022/01/06 10:38:59;;;;;;;19.02;6.93;;;2.90;99.90;;;;;;5042890;28;20061;-73
2022/01/06 10:41:29;;;;;;;21.65;7.25;;;3.00;99.90;;;;;;5047827;28;20033;-73
2022/01/06 10:43:58;;;;;;;17.23;6.95;;;3.00;99.90;;;;;;5047443;28;20124;-73
2022/01/06 10:46:32;;;;;;;20.65;6.72;;;2.90;99.90;;;;;;5028421;28;20044;-73
2022/01/06 10:49:00;;;;;;;18.33;6.20;;;2.90;99.90;;;;;;5046050;28;20117;-74
2022/01/06 10:51:50;;;;;;;21.13;7.53;;;3.00;99.90;;;;;;5027722;28;20035;-74
2022/01/06 10:54:24;;;;;;;17.83;5.90;;;3.00;99.90;;;;;;5047266;28;20029;-74
2022/01/06 10:56:57;;;;;;;16.77;5.68;;;3.10;99.90;;;;;;5041002;28;20037;-73
2022/01/06 10:59:29;;;;;;;18.98;5.20;;;3.10;99.90;;;;;;5037056;28;20029;-76
2022/01/06 11:01:55;;;;;;;17.42;4.60;;;3.20;99.90;;;;;;5047346;28;20500;-74
2022/01/06 11:04:21;;;;;;;13.10;4.35;;;3.40;99.90;;;;;;4999322;28;20493;-73
2022/01/06 11:06:49;;;;;;;19.02;5.55;;;3.40;99.90;;;;;;5032950;28;20064;-74
2022/01/06 11:09:15;;;;;;;15.13;4.07;;;3.40;99.90;;;;;;5037386;28;20032;-74
2022/01/06 11:14:17;;;;;;;15.10;4.38;;;3.40;99.90;;;;;;5034097;28;20041;-73
2022/01/06 11:16:43;;;;;;;12.55;4.65;;;3.40;99.90;;;;;;5040131;28;20048;-74
2022/01/06 11:19:11;;;;;;;12.05;4.57;;;3.40;99.90;;;;;;5049581;28;20025;-74
2022/01/06 11:21:40;;;;;;;15.35;4.85;;;3.50;99.90;;;;;;5051111;28;20059;-74
2022/01/06 11:24:17;;;;;;;12.63;4.43;;;3.50;99.90;;;;;;5043322;28;20045;-73
2022/01/06 11:26:56;;;;;;;12.85;4.57;;;3.40;99.90;;;;;;5036739;28;20496;-74
2022/01/06 11:29:34;;;;;;;21.52;4.97;;;3.50;99.90;;;;;;5046706;28;20033;-74
2022/01/06 11:32:03;;;;;;;15.32;4.32;;;3.40;99.90;;;;;;5018500;28;20036;-74
2022/01/06 11:34:35;;;;;;;11.50;4.53;;;3.40;99.90;;;;;;5039488;28;20434;-74
2022/01/06 11:37:12;;;;;;;13.88;3.30;;;3.30;99.90;;;;;;5050777;28;20037;-74
2022/01/06 11:39:39;;;;;;;11.82;3.72;;;3.40;99.90;;;;;;5050321;28;20033;-73
2022/01/06 11:42:17;;;;;;;13.32;4.03;;;3.40;99.90;;;;;;5050956;28;20032;-75
2022/01/06 11:44:50;;;;;;;12.48;4.03;;;3.50;99.90;;;;;;5044064;28;20133;-74
2022/01/06 11:47:26;;;;;;;17.15;4.00;;;3.70;99.90;;;;;;5043618;28;20036;-74
2022/01/06 11:49:52;;;;;;;15.43;3.45;;;4.00;99.90;;;;;;5043730;28;20047;-74
2022/01/06 11:52:18;;;;;;;16.98;3.38;;;4.20;99.90;;;;;;5043137;28;20017;-73
2022/01/06 11:54:55;;;;;;;13.32;3.75;;;4.20;99.90;;;;;;5049405;28;20025;-72
2022/01/06 11:57:31;;;;;;;14.07;3.55;;;4.30;99.90;;;;;;5049848;28;20040;-73
2022/01/06 12:00:13;;;;;;;17.70;4.00;;;4.40;99.90;;;;;;5021204;28;20128;-73
2022/01/06 12:02:39;;;;;;;13.38;3.30;;;4.20;99.90;;;;;;5032931;28;20029;-75
2022/01/06 12:05:05;;;;;;;18.65;3.53;;;4.20;99.90;;;;;;5038397;28;20030;-71
2022/01/06 12:07:31;;;;;;;16.45;2.95;;;4.10;99.90;;;;;;5018879;28;20048;-73
2022/01/06 12:10:06;;;;;;;9.85;3.28;;;3.80;99.90;;;;;;5037439;28;20030;-73
2022/01/06 12:12:37;;;;;;;9.85;2.30;;;3.60;99.90;;;;;;5036123;28;20385;-72
2022/01/06 12:15:15;;;;;;;8.43;2.25;;;3.40;99.90;;;;;;5035866;28;20033;-72
2022/01/06 12:17:47;;;;;;;12.27;3.20;;;3.30;99.90;;;;;;5045214;28;20087;-72
2022/01/06 12:20:23;;;;;;;10.70;3.10;;;3.40;99.90;;;;;;5041495;28;20039;-73
2022/01/06 12:22:50;;;;;;;13.05;2.90;;;3.60;99.90;;;;;;5033313;28;20124;-72
2022/01/06 12:25:16;;;;;;;14.27;4.20;;;4.10;99.90;;;;;;5040079;28;20170;-72
2022/01/06 12:27:49;;;;;;;9.73;3.25;;;4.80;99.90;;;;;;5025839;28;20496;-72
2022/01/06 12:30:18;;;;;;;8.45;3.30;;;5.30;99.90;;;;;;5031121;28;20076;-71
2022/01/06 12:33:02;;;;;;;14.50;3.78;;;5.60;99.90;;;;;;5044378;28;20041;-72
2022/01/06 12:35:48;;;;;;;16.23;3.65;;;5.30;99.90;;;;;;5043222;28;20029;-71
2022/01/06 12:38:15;;;;;;;13.82;3.60;;;5.10;99.90;;;;;;5041311;28;20191;-72
2022/01/06 12:40:43;;;;;;;13.65;3.55;;;5.00;99.90;;;;;;5037451;28;20037;-72
2022/01/06 12:43:22;;;;;;;11.80;3.30;;;4.70;99.90;;;;;;5040681;28;20183;-72
2022/01/06 12:46:00;;;;;;;11.73;3.47;;;4.80;99.90;;;;;;5035753;28;20060;-72
2022/01/06 12:48:32;;;;;;;18.63;5.00;;;4.90;99.90;;;;;;5041981;28;20029;-72
2022/01/06 12:50:58;;;;;;;15.60;3.70;;;4.90;99.90;;;;;;5035874;28;20033;-70
2022/01/06 12:53:32;;;;;;;10.38;2.85;;;4.80;99.90;;;;;;5035836;28;20082;-71
2022/01/06 12:55:58;;;;;;;18.15;5.95;;;4.60;99.90;;;;;;5036703;28;20029;-72
2022/01/06 12:58:29;;;;;;;11.13;4.43;;;4.50;99.90;;;;;;5029627;28;20394;-72
2022/01/06 13:00:57;;;;;;;10.00;3.83;;;4.40;99.90;;;;;;5029173;28;20425;-71
2022/01/06 13:03:27;;;;;;;10.25;3.30;;;4.30;99.90;;;;;;5029761;28;20108;-73